sensor_id;sensor_type;location;lat;lon;timestamp;temperature;humidity
40287;DHT22;25998;46.604;13.610;2024-02-04T00:01:52;5.80;99.90
40287;DHT22;25998;46.604;13.610;2024-02-04T00:05:03;5.80;99.90
40287;DHT22;25998;46.604;13.610;2024-02-04T00:08:14;5.80;99.90
40287;DHT22;25998;46.604;13.610;2024-02-04T00:11:27;5.80;99.90
40287;DHT22;25998;46.604;13.610;2024-02-04T00:14:38;5.80;99.90
40287;DHT22;25998;46.604;13.610;2024-02-04T00:17:49;5.70;99.90
40287;DHT22;25998;46.604;13.610;2024-02-04T00:21:00;5.70;99.90
40287;DHT22;25998;46.604;13.610;2024-02-04T00:24:11;5.80;99.90
40287;DHT22;25998;46.604;13.610;2024-02-04T00:27:21;5.90;99.90
40287;DHT22;25998;46.604;13.610;2024-02-04T00:30:32;5.80;99.90
40287;DHT22;25998;46.604;13.610;2024-02-04T00:33:43;5.80;99.90
40287;DHT22;25998;46.604;13.610;2024-02-04T00:36:54;5.80;99.90
40287;DHT22;25998;46.604;13.610;2024-02-04T00:40:06;5.90;99.90
40287;DHT22;25998;46.604;13.610;2024-02-04T00:43:17;5.70;99.90
40287;DHT22;25998;46.604;13.610;2024-02-04T00:46:27;5.60;99.90
40287;DHT22;25998;46.604;13.610;2024-02-04T00:49:38;5.50;99.90
40287;DHT22;25998;46.604;13.610;2024-02-04T00:52:49;5.50;99.90
40287;DHT22;25998;46.604;13.610;2024-02-04T00:56:04;5.50;99.90
40287;DHT22;25998;46.604;13.610;2024-02-04T00:59:15;5.50;99.90
40287;DHT22;25998;46.604;13.610;2024-02-04T01:02:26;5.50;99.90
40287;DHT22;25998;46.604;13.610;2024-02-04T01:05:37;5.60;99.90
40287;DHT22;25998;46.604;13.610;2024-02-04T01:08:47;5.60;99.90
40287;DHT22;25998;46.604;13.610;2024-02-04T01:11:58;5.50;99.90
40287;DHT22;25998;46.604;13.610;2024-02-04T01:15:09;5.50;99.90
40287;DHT22;25998;46.604;13.610;2024-02-04T01:18:20;5.50;99.90
40287;DHT22;25998;46.604;13.610;2024-02-04T01:21:31;5.40;99.90
40287;DHT22;25998;46.604;13.610;2024-02-04T01:24:41;5.20;99.90
40287;DHT22;25998;46.604;13.610;2024-02-04T01:27:52;5.20;99.90
40287;DHT22;25998;46.604;13.610;2024-02-04T01:31:03;5.20;99.90
40287;DHT22;25998;46.604;13.610;2024-02-04T01:34:14;5.10;99.90
40287;DHT22;25998;46.604;13.610;2024-02-04T01:37:25;5.10;99.90
40287;DHT22;25998;46.604;13.610;2024-02-04T01:40:36;5.20;99.90
40287;DHT22;25998;46.604;13.610;2024-02-04T01:43:47;5.10;99.90
40287;DHT22;25998;46.604;13.610;2024-02-04T01:46:58;4.90;99.90
40287;DHT22;25998;46.604;13.610;2024-02-04T01:50:09;4.90;99.90
40287;DHT22;25998;46.604;13.610;2024-02-04T01:53:22;4.80;99.90
40287;DHT22;25998;46.604;13.610;2024-02-04T01:56:34;4.80;99.90
40287;DHT22;25998;46.604;13.610;2024-02-04T01:59:46;4.80;99.90
40287;DHT22;25998;46.604;13.610;2024-02-04T02:02:59;4.90;99.90
40287;DHT22;25998;46.604;13.610;2024-02-04T02:06:10;4.90;99.90
40287;DHT22;25998;46.604;13.610;2024-02-04T02:09:21;4.90;99.90
40287;DHT22;25998;46.604;13.610;2024-02-04T02:12:47;4.90;99.90
40287;DHT22;25998;46.604;13.610;2024-02-04T02:16:06;4.80;99.90
40287;DHT22;25998;46.604;13.610;2024-02-04T02:23:11;4.70;99.90
40287;DHT22;25998;46.604;13.610;2024-02-04T02:26:24;4.60;99.90
40287;DHT22;25998;46.604;13.610;2024-02-04T02:29:36;4.50;99.90
40287;DHT22;25998;46.604;13.610;2024-02-04T02:32:48;4.50;99.90
40287;DHT22;25998;46.604;13.610;2024-02-04T02:36:04;4.40;99.90
40287;DHT22;25998;46.604;13.610;2024-02-04T02:39:28;4.60;99.90
40287;DHT22;25998;46.604;13.610;2024-02-04T02:42:43;4.60;99.90
40287;DHT22;25998;46.604;13.610;2024-02-04T02:45:56;4.60;99.90
40287;DHT22;25998;46.604;13.610;2024-02-04T02:49:07;4.50;99.90
40287;DHT22;25998;46.604;13.610;2024-02-04T02:52:19;4.40;99.90
40287;DHT22;25998;46.604;13.610;2024-02-04T02:55:30;4.40;99.90
40287;DHT22;25998;46.604;13.610;2024-02-04T02:58:41;4.40;99.90
40287;DHT22;25998;46.604;13.610;2024-02-04T03:01:52;4.40;99.90
40287;DHT22;25998;46.604;13.610;2024-02-04T03:05:03;4.40;99.90
40287;DHT22;25998;46.604;13.610;2024-02-04T03:08:14;4.40;99.90
40287;DHT22;25998;46.604;13.610;2024-02-04T03:11:25;4.30;99.90
40287;DHT22;25998;46.604;13.610;2024-02-04T03:14:35;4.30;99.90
40287;DHT22;25998;46.604;13.610;2024-02-04T03:17:46;4.40;99.90
40287;DHT22;25998;46.604;13.610;2024-02-04T03:20:57;4.40;99.90
40287;DHT22;25998;46.604;13.610;2024-02-04T03:24:08;4.40;99.90
40287;DHT22;25998;46.604;13.610;2024-02-04T03:27:20;4.50;99.90
40287;DHT22;25998;46.604;13.610;2024-02-04T03:30:31;4.60;99.90
40287;DHT22;25998;46.604;13.610;2024-02-04T03:33:42;4.60;99.90
40287;DHT22;25998;46.604;13.610;2024-02-04T03:36:53;4.70;99.90
40287;DHT22;25998;46.604;13.610;2024-02-04T03:40:06;4.70;99.90
40287;DHT22;25998;46.604;13.610;2024-02-04T03:43:17;4.80;99.90
40287;DHT22;25998;46.604;13.610;2024-02-04T03:46:28;4.80;99.90
40287;DHT22;25998;46.604;13.610;2024-02-04T03:49:39;4.80;99.90
40287;DHT22;25998;46.604;13.610;2024-02-04T03:52:50;4.80;99.90
40287;DHT22;25998;46.604;13.610;2024-02-04T03:56:01;4.90;99.90
40287;DHT22;25998;46.604;13.610;2024-02-04T03:59:12;4.90;99.90
40287;DHT22;25998;46.604;13.610;2024-02-04T04:02:23;4.80;99.90
40287;DHT22;25998;46.604;13.610;2024-02-04T04:05:33;4.80;99.90
40287;DHT22;25998;46.604;13.610;2024-02-04T04:08:44;4.80;99.90
40287;DHT22;25998;46.604;13.610;2024-02-04T04:11:55;4.70;99.90
40287;DHT22;25998;46.604;13.610;2024-02-04T04:15:06;4.70;99.90
40287;DHT22;25998;46.604;13.610;2024-02-04T04:18:17;4.60;99.90
40287;DHT22;25998;46.604;13.610;2024-02-04T04:21:28;4.60;99.90
40287;DHT22;25998;46.604;13.610;2024-02-04T04:24:39;4.70;99.90
40287;DHT22;25998;46.604;13.610;2024-02-04T04:27:50;4.80;99.90
40287;DHT22;25998;46.604;13.610;2024-02-04T04:31:01;4.80;99.90
40287;DHT22;25998;46.604;13.610;2024-02-04T04:34:12;4.70;99.90
40287;DHT22;25998;46.604;13.610;2024-02-04T04:37:23;4.50;99.90
40287;DHT22;25998;46.604;13.610;2024-02-04T04:40:34;4.50;99.90
40287;DHT22;25998;46.604;13.610;2024-02-04T04:43:45;4.50;99.90
40287;DHT22;25998;46.604;13.610;2024-02-04T04:46:55;4.60;99.90
40287;DHT22;25998;46.604;13.610;2024-02-04T04:50:07;4.70;99.90
40287;DHT22;25998;46.604;13.610;2024-02-04T04:53:18;4.70;99.90
40287;DHT22;25998;46.604;13.610;2024-02-04T04:56:28;4.70;99.90
40287;DHT22;25998;46.604;13.610;2024-02-04T04:59:39;4.70;99.90
40287;DHT22;25998;46.604;13.610;2024-02-04T05:02:50;4.70;99.90
40287;DHT22;25998;46.604;13.610;2024-02-04T05:06:01;4.70;99.90
40287;DHT22;25998;46.604;13.610;2024-02-04T05:09:12;4.70;99.90
40287;DHT22;25998;46.604;13.610;2024-02-04T05:12:23;4.70;99.90
40287;DHT22;25998;46.604;13.610;2024-02-04T05:15:34;4.80;99.90
40287;DHT22;25998;46.604;13.610;2024-02-04T05:18:45;4.70;99.90
40287;DHT22;25998;46.604;13.610;2024-02-04T05:21:56;4.70;99.90
40287;DHT22;25998;46.604;13.610;2024-02-04T05:25:07;4.80;99.90
40287;DHT22;25998;46.604;13.610;2024-02-04T05:28:19;4.90;99.90
40287;DHT22;25998;46.604;13.610;2024-02-04T05:31:30;4.90;99.90
40287;DHT22;25998;46.604;13.610;2024-02-04T05:34:41;5.00;99.90
40287;DHT22;25998;46.604;13.610;2024-02-04T05:37:52;5.00;99.90
40287;DHT22;25998;46.604;13.610;2024-02-04T05:41:03;5.20;99.90
40287;DHT22;25998;46.604;13.610;2024-02-04T05:44:14;5.20;99.90
40287;DHT22;25998;46.604;13.610;2024-02-04T05:47:25;5.30;99.90
40287;DHT22;25998;46.604;13.610;2024-02-04T05:50:36;5.30;99.90
40287;DHT22;25998;46.604;13.610;2024-02-04T05:53:47;5.20;99.90
40287;DHT22;25998;46.604;13.610;2024-02-04T05:56:57;5.10;99.90
40287;DHT22;25998;46.604;13.610;2024-02-04T06:00:09;5.10;99.90
40287;DHT22;25998;46.604;13.610;2024-02-04T06:03:21;5.10;99.90
40287;DHT22;25998;46.604;13.610;2024-02-04T06:06:31;5.10;99.90
40287;DHT22;25998;46.604;13.610;2024-02-04T06:09:42;5.10;99.90
40287;DHT22;25998;46.604;13.610;2024-02-04T06:12:53;5.00;99.90
40287;DHT22;25998;46.604;13.610;2024-02-04T06:16:04;5.00;99.90
40287;DHT22;25998;46.604;13.610;2024-02-04T06:19:15;4.90;99.90
40287;DHT22;25998;46.604;13.610;2024-02-04T06:22:26;4.70;99.90
40287;DHT22;25998;46.604;13.610;2024-02-04T06:25:37;4.60;99.90
40287;DHT22;25998;46.604;13.610;2024-02-04T06:28:48;4.60;99.90
40287;DHT22;25998;46.604;13.610;2024-02-04T06:32:01;4.50;99.90
40287;DHT22;25998;46.604;13.610;2024-02-04T06:35:12;4.50;99.90
40287;DHT22;25998;46.604;13.610;2024-02-04T06:38:23;4.50;99.90
40287;DHT22;25998;46.604;13.610;2024-02-04T06:41:34;4.60;99.90
40287;DHT22;25998;46.604;13.610;2024-02-04T06:44:45;4.60;99.90
40287;DHT22;25998;46.604;13.610;2024-02-04T06:47:56;4.60;99.90
40287;DHT22;25998;46.604;13.610;2024-02-04T06:51:07;4.60;99.90
40287;DHT22;25998;46.604;13.610;2024-02-04T06:54:18;4.70;99.90
40287;DHT22;25998;46.604;13.610;2024-02-04T06:57:29;4.80;99.90
40287;DHT22;25998;46.604;13.610;2024-02-04T07:00:40;4.90;99.90
40287;DHT22;25998;46.604;13.610;2024-02-04T07:03:51;4.90;99.90
40287;DHT22;25998;46.604;13.610;2024-02-04T07:07:02;4.80;99.90
40287;DHT22;25998;46.604;13.610;2024-02-04T07:10:13;4.90;99.90
40287;DHT22;25998;46.604;13.610;2024-02-04T07:13:24;4.80;99.90
40287;DHT22;25998;46.604;13.610;2024-02-04T07:16:35;4.80;99.90
40287;DHT22;25998;46.604;13.610;2024-02-04T07:19:46;4.90;99.90
40287;DHT22;25998;46.604;13.610;2024-02-04T07:22:57;4.90;99.90
40287;DHT22;25998;46.604;13.610;2024-02-04T07:26:08;4.90;99.90
40287;DHT22;25998;46.604;13.610;2024-02-04T07:29:19;5.00;99.90
40287;DHT22;25998;46.604;13.610;2024-02-04T07:32:30;4.80;99.90
40287;DHT22;25998;46.604;13.610;2024-02-04T07:35:41;4.90;99.90
40287;DHT22;25998;46.604;13.610;2024-02-04T07:38:51;4.90;99.90
40287;DHT22;25998;46.604;13.610;2024-02-04T07:42:02;4.90;99.90
40287;DHT22;25998;46.604;13.610;2024-02-04T07:45:13;4.90;99.90
40287;DHT22;25998;46.604;13.610;2024-02-04T07:48:24;5.00;99.90
40287;DHT22;25998;46.604;13.610;2024-02-04T07:51:35;5.00;99.90
40287;DHT22;25998;46.604;13.610;2024-02-04T07:54:48;5.10;99.90
40287;DHT22;25998;46.604;13.610;2024-02-04T07:57:59;5.10;99.90
40287;DHT22;25998;46.604;13.610;2024-02-04T08:01:10;5.10;99.90
40287;DHT22;25998;46.604;13.610;2024-02-04T08:04:20;5.10;99.90
40287;DHT22;25998;46.604;13.610;2024-02-04T08:07:31;5.20;99.90
40287;DHT22;25998;46.604;13.610;2024-02-04T08:10:42;5.20;99.90
40287;DHT22;25998;46.604;13.610;2024-02-04T08:13:53;5.20;99.90
40287;DHT22;25998;46.604;13.610;2024-02-04T08:17:04;5.30;99.90
40287;DHT22;25998;46.604;13.610;2024-02-04T08:20:15;5.30;99.90
40287;DHT22;25998;46.604;13.610;2024-02-04T08:23:26;5.30;99.90
40287;DHT22;25998;46.604;13.610;2024-02-04T08:26:37;5.50;99.90
40287;DHT22;25998;46.604;13.610;2024-02-04T08:29:48;5.50;99.90
40287;DHT22;25998;46.604;13.610;2024-02-04T08:32:59;5.50;99.90
40287;DHT22;25998;46.604;13.610;2024-02-04T08:36:10;5.50;99.90
40287;DHT22;25998;46.604;13.610;2024-02-04T08:39:21;5.60;99.90
40287;DHT22;25998;46.604;13.610;2024-02-04T08:42:33;5.70;99.90
40287;DHT22;25998;46.604;13.610;2024-02-04T08:45:44;5.80;99.90
40287;DHT22;25998;46.604;13.610;2024-02-04T08:48:55;5.90;99.90
40287;DHT22;25998;46.604;13.610;2024-02-04T08:52:06;6.00;99.90
40287;DHT22;25998;46.604;13.610;2024-02-04T08:55:17;6.00;99.90
40287;DHT22;25998;46.604;13.610;2024-02-04T08:58:28;6.20;99.90
40287;DHT22;25998;46.604;13.610;2024-02-04T09:01:39;6.40;99.90
40287;DHT22;25998;46.604;13.610;2024-02-04T09:04:50;6.70;99.90
40287;DHT22;25998;46.604;13.610;2024-02-04T09:08:00;7.40;99.80
40287;DHT22;25998;46.604;13.610;2024-02-04T09:11:12;8.20;99.10
40287;DHT22;25998;46.604;13.610;2024-02-04T09:14:29;9.00;98.70
40287;DHT22;25998;46.604;13.610;2024-02-04T09:17:40;9.80;97.90
40287;DHT22;25998;46.604;13.610;2024-02-04T09:20:51;10.20;96.00
40287;DHT22;25998;46.604;13.610;2024-02-04T09:24:02;10.50;96.30
40287;DHT22;25998;46.604;13.610;2024-02-04T09:27:13;10.90;96.40
40287;DHT22;25998;46.604;13.610;2024-02-04T09:30:23;11.40;94.70
40287;DHT22;25998;46.604;13.610;2024-02-04T09:33:34;11.50;94.50
40287;DHT22;25998;46.604;13.610;2024-02-04T09:36:46;11.90;95.20
40287;DHT22;25998;46.604;13.610;2024-02-04T09:39:57;12.30;94.10
40287;DHT22;25998;46.604;13.610;2024-02-04T09:43:08;12.40;93.50
40287;DHT22;25998;46.604;13.610;2024-02-04T09:46:19;12.70;94.50
40287;DHT22;25998;46.604;13.610;2024-02-04T09:49:30;12.80;93.50
40287;DHT22;25998;46.604;13.610;2024-02-04T09:52:48;13.00;93.50
40287;DHT22;25998;46.604;13.610;2024-02-04T09:56:02;12.70;93.50
40287;DHT22;25998;46.604;13.610;2024-02-04T09:59:13;12.30;94.30
40287;DHT22;25998;46.604;13.610;2024-02-04T10:02:24;12.40;94.40
40287;DHT22;25998;46.604;13.610;2024-02-04T10:05:36;12.30;93.70
40287;DHT22;25998;46.604;13.610;2024-02-04T10:08:47;12.30;93.50
40287;DHT22;25998;46.604;13.610;2024-02-04T10:11:58;12.20;93.20
40287;DHT22;25998;46.604;13.610;2024-02-04T10:15:10;12.40;93.70
40287;DHT22;25998;46.604;13.610;2024-02-04T10:18:21;12.80;93.00
40287;DHT22;25998;46.604;13.610;2024-02-04T10:21:33;13.20;93.20
40287;DHT22;25998;46.604;13.610;2024-02-04T10:24:44;13.40;92.80
40287;DHT22;25998;46.604;13.610;2024-02-04T10:27:55;13.40;92.40
40287;DHT22;25998;46.604;13.610;2024-02-04T10:31:09;13.40;91.60
40287;DHT22;25998;46.604;13.610;2024-02-04T10:34:20;13.40;91.70
40287;DHT22;25998;46.604;13.610;2024-02-04T10:37:32;13.60;91.80
40287;DHT22;25998;46.604;13.610;2024-02-04T10:40:44;13.90;91.90
40287;DHT22;25998;46.604;13.610;2024-02-04T10:43:57;13.80;92.20
40287;DHT22;25998;46.604;13.610;2024-02-04T10:47:10;13.80;92.10
40287;DHT22;25998;46.604;13.610;2024-02-04T10:50:28;13.90;90.90
40287;DHT22;25998;46.604;13.610;2024-02-04T10:53:44;14.10;90.70
40287;DHT22;25998;46.604;13.610;2024-02-04T10:56:58;14.30;91.20
40287;DHT22;25998;46.604;13.610;2024-02-04T11:00:12;14.30;91.50
40287;DHT22;25998;46.604;13.610;2024-02-04T11:03:25;14.30;91.80
40287;DHT22;25998;46.604;13.610;2024-02-04T11:06:38;14.20;90.90
40287;DHT22;25998;46.604;13.610;2024-02-04T11:09:52;14.20;90.50
40287;DHT22;25998;46.604;13.610;2024-02-04T11:13:03;14.30;91.00
40287;DHT22;25998;46.604;13.610;2024-02-04T11:20:19;14.50;91.00
40287;DHT22;25998;46.604;13.610;2024-02-04T11:26:47;14.40;91.70
40287;DHT22;25998;46.604;13.610;2024-02-04T11:29:59;14.60;91.80
40287;DHT22;25998;46.604;13.610;2024-02-04T11:33:12;14.40;91.50
40287;DHT22;25998;46.604;13.610;2024-02-04T11:36:27;14.00;91.80
40287;DHT22;25998;46.604;13.610;2024-02-04T11:39:48;14.00;91.20
40287;DHT22;25998;46.604;13.610;2024-02-04T11:46:16;14.30;91.20
40287;DHT22;25998;46.604;13.610;2024-02-04T11:49:30;14.80;91.50
40287;DHT22;25998;46.604;13.610;2024-02-04T11:52:41;14.90;91.00
40287;DHT22;25998;46.604;13.610;2024-02-04T11:55:52;14.80;90.80
40287;DHT22;25998;46.604;13.610;2024-02-04T11:59:04;14.80;91.20
40287;DHT22;25998;46.604;13.610;2024-02-04T12:02:18;14.70;90.90
40287;DHT22;25998;46.604;13.610;2024-02-04T12:05:37;14.80;90.80
40287;DHT22;25998;46.604;13.610;2024-02-04T12:08:49;14.90;90.50
40287;DHT22;25998;46.604;13.610;2024-02-04T12:12:01;14.90;90.60
40287;DHT22;25998;46.604;13.610;2024-02-04T12:15:14;15.00;90.50
40287;DHT22;25998;46.604;13.610;2024-02-04T12:18:25;15.00;90.70
40287;DHT22;25998;46.604;13.610;2024-02-04T12:21:37;15.00;90.50
40287;DHT22;25998;46.604;13.610;2024-02-04T12:24:48;14.80;91.00
40287;DHT22;25998;46.604;13.610;2024-02-04T12:28:00;15.00;90.90
40287;DHT22;25998;46.604;13.610;2024-02-04T12:31:20;15.00;90.80
40287;DHT22;25998;46.604;13.610;2024-02-04T12:34:31;14.90;91.10
40287;DHT22;25998;46.604;13.610;2024-02-04T12:37:52;15.00;90.70
40287;DHT22;25998;46.604;13.610;2024-02-04T12:41:03;15.20;90.60
40287;DHT22;25998;46.604;13.610;2024-02-04T12:44:18;15.10;89.90
40287;DHT22;25998;46.604;13.610;2024-02-04T12:47:29;15.10;90.50
40287;DHT22;25998;46.604;13.610;2024-02-04T12:50:40;15.00;90.20
40287;DHT22;25998;46.604;13.610;2024-02-04T12:57:22;14.80;90.20
40287;DHT22;25998;46.604;13.610;2024-02-04T13:00:36;14.90;89.50
40287;DHT22;25998;46.604;13.610;2024-02-04T13:03:47;15.00;89.30
40287;DHT22;25998;46.604;13.610;2024-02-04T13:07:00;15.00;89.10
40287;DHT22;25998;46.604;13.610;2024-02-04T13:10:13;14.90;90.20
40287;DHT22;25998;46.604;13.610;2024-02-04T13:13:25;14.90;90.00
40287;DHT22;25998;46.604;13.610;2024-02-04T13:16:37;15.00;90.30
40287;DHT22;25998;46.604;13.610;2024-02-04T13:19:48;14.90;90.20
40287;DHT22;25998;46.604;13.610;2024-02-04T13:22:59;14.80;90.70
40287;DHT22;25998;46.604;13.610;2024-02-04T13:26:15;14.90;90.10
40287;DHT22;25998;46.604;13.610;2024-02-04T13:29:27;15.00;89.20
40287;DHT22;25998;46.604;13.610;2024-02-04T13:32:41;15.10;89.50
40287;DHT22;25998;46.604;13.610;2024-02-04T13:35:52;15.20;90.20
40287;DHT22;25998;46.604;13.610;2024-02-04T13:39:04;15.30;90.30
40287;DHT22;25998;46.604;13.610;2024-02-04T13:42:16;15.20;90.80
40287;DHT22;25998;46.604;13.610;2024-02-04T13:45:27;15.20;89.20
40287;DHT22;25998;46.604;13.610;2024-02-04T13:48:38;15.20;90.70
40287;DHT22;25998;46.604;13.610;2024-02-04T13:51:48;15.20;89.10
40287;DHT22;25998;46.604;13.610;2024-02-04T13:54:59;15.30;89.00
40287;DHT22;25998;46.604;13.610;2024-02-04T13:58:10;15.50;88.80
40287;DHT22;25998;46.604;13.610;2024-02-04T14:01:21;15.50;90.00
40287;DHT22;25998;46.604;13.610;2024-02-04T14:04:33;15.40;88.50
40287;DHT22;25998;46.604;13.610;2024-02-04T14:07:44;15.50;89.00
40287;DHT22;25998;46.604;13.610;2024-02-04T14:10:55;15.60;88.70
40287;DHT22;25998;46.604;13.610;2024-02-04T14:14:06;15.70;89.60
40287;DHT22;25998;46.604;13.610;2024-02-04T14:17:16;15.70;89.50
40287;DHT22;25998;46.604;13.610;2024-02-04T14:20:27;15.50;89.70
40287;DHT22;25998;46.604;13.610;2024-02-04T14:23:39;15.60;89.70
40287;DHT22;25998;46.604;13.610;2024-02-04T14:26:56;15.50;89.90
40287;DHT22;25998;46.604;13.610;2024-02-04T14:30:09;15.30;91.10
40287;DHT22;25998;46.604;13.610;2024-02-04T14:33:20;15.50;91.00
40287;DHT22;25998;46.604;13.610;2024-02-04T14:36:30;15.30;90.60
40287;DHT22;25998;46.604;13.610;2024-02-04T14:39:41;15.20;91.40
40287;DHT22;25998;46.604;13.610;2024-02-04T14:42:52;14.90;92.00
40287;DHT22;25998;46.604;13.610;2024-02-04T14:46:03;14.70;91.60
40287;DHT22;25998;46.604;13.610;2024-02-04T14:49:14;14.70;92.00
40287;DHT22;25998;46.604;13.610;2024-02-04T14:52:25;14.50;92.20
40287;DHT22;25998;46.604;13.610;2024-02-04T14:55:36;14.10;92.50
40287;DHT22;25998;46.604;13.610;2024-02-04T14:58:47;13.80;92.80
40287;DHT22;25998;46.604;13.610;2024-02-04T15:01:58;13.70;92.90
40287;DHT22;25998;46.604;13.610;2024-02-04T15:05:10;13.80;92.60
40287;DHT22;25998;46.604;13.610;2024-02-04T15:08:22;13.70;92.30
40287;DHT22;25998;46.604;13.610;2024-02-04T15:11:33;13.50;92.40
40287;DHT22;25998;46.604;13.610;2024-02-04T15:14:45;13.30;92.00
40287;DHT22;25998;46.604;13.610;2024-02-04T15:17:56;13.20;92.20
40287;DHT22;25998;46.604;13.610;2024-02-04T15:21:07;13.10;92.20
40287;DHT22;25998;46.604;13.610;2024-02-04T15:24:18;12.70;92.80
40287;DHT22;25998;46.604;13.610;2024-02-04T15:27:30;12.40;93.10
40287;DHT22;25998;46.604;13.610;2024-02-04T15:30:42;12.20;92.80
40287;DHT22;25998;46.604;13.610;2024-02-04T15:33:53;12.10;93.00
40287;DHT22;25998;46.604;13.610;2024-02-04T15:37:04;11.90;93.30
40287;DHT22;25998;46.604;13.610;2024-02-04T15:40:15;11.80;93.50
40287;DHT22;25998;46.604;13.610;2024-02-04T15:43:26;11.60;93.70
40287;DHT22;25998;46.604;13.610;2024-02-04T15:46:37;11.40;93.70
40287;DHT22;25998;46.604;13.610;2024-02-04T15:49:48;11.30;94.20
40287;DHT22;25998;46.604;13.610;2024-02-04T15:53:00;11.10;94.30
40287;DHT22;25998;46.604;13.610;2024-02-04T15:56:11;10.90;94.50
40287;DHT22;25998;46.604;13.610;2024-02-04T15:59:27;10.90;94.50
40287;DHT22;25998;46.604;13.610;2024-02-04T16:02:38;10.70;94.50
40287;DHT22;25998;46.604;13.610;2024-02-04T16:05:49;10.70;94.30
40287;DHT22;25998;46.604;13.610;2024-02-04T16:09:01;10.70;94.20
40287;DHT22;25998;46.604;13.610;2024-02-04T16:12:19;10.70;94.00
40287;DHT22;25998;46.604;13.610;2024-02-04T16:15:31;10.80;94.00
40287;DHT22;25998;46.604;13.610;2024-02-04T16:18:42;10.70;94.10
40287;DHT22;25998;46.604;13.610;2024-02-04T16:21:53;10.50;94.40
40287;DHT22;25998;46.604;13.610;2024-02-04T16:25:04;10.40;94.50
40287;DHT22;25998;46.604;13.610;2024-02-04T16:28:15;10.20;94.60
40287;DHT22;25998;46.604;13.610;2024-02-04T16:31:27;10.00;95.10
40287;DHT22;25998;46.604;13.610;2024-02-04T16:34:38;9.90;95.20
40287;DHT22;25998;46.604;13.610;2024-02-04T16:37:49;9.80;95.40
40287;DHT22;25998;46.604;13.610;2024-02-04T16:41:00;9.80;95.30
40287;DHT22;25998;46.604;13.610;2024-02-04T16:44:11;9.60;95.90
40287;DHT22;25998;46.604;13.610;2024-02-04T16:47:24;9.50;96.10
40287;DHT22;25998;46.604;13.610;2024-02-04T16:50:35;9.50;95.60
40287;DHT22;25998;46.604;13.610;2024-02-04T16:53:46;9.70;95.30
40287;DHT22;25998;46.604;13.610;2024-02-04T16:56:58;9.70;95.70
40287;DHT22;25998;46.604;13.610;2024-02-04T17:00:09;9.50;95.70
40287;DHT22;25998;46.604;13.610;2024-02-04T17:03:24;9.30;95.90
40287;DHT22;25998;46.604;13.610;2024-02-04T17:06:35;9.00;96.20
40287;DHT22;25998;46.604;13.610;2024-02-04T17:09:47;8.80;96.40
40287;DHT22;25998;46.604;13.610;2024-02-04T17:13:00;8.70;96.50
40287;DHT22;25998;46.604;13.610;2024-02-04T17:16:19;8.70;96.60
40287;DHT22;25998;46.604;13.610;2024-02-04T17:23:19;8.70;96.40
40287;DHT22;25998;46.604;13.610;2024-02-04T17:26:31;8.70;96.60
40287;DHT22;25998;46.604;13.610;2024-02-04T17:29:43;8.60;96.80
40287;DHT22;25998;46.604;13.610;2024-02-04T17:32:54;8.50;97.00
40287;DHT22;25998;46.604;13.610;2024-02-04T17:36:06;8.40;97.20
40287;DHT22;25998;46.604;13.610;2024-02-04T17:39:17;8.30;97.20
40287;DHT22;25998;46.604;13.610;2024-02-04T17:42:28;8.20;97.20
40287;DHT22;25998;46.604;13.610;2024-02-04T17:45:40;8.40;97.40
40287;DHT22;25998;46.604;13.610;2024-02-04T17:48:50;8.40;97.20
40287;DHT22;25998;46.604;13.610;2024-02-04T17:52:01;8.40;97.00
40287;DHT22;25998;46.604;13.610;2024-02-04T17:55:12;8.40;97.00
40287;DHT22;25998;46.604;13.610;2024-02-04T17:58:24;8.20;97.20
40287;DHT22;25998;46.604;13.610;2024-02-04T18:01:34;8.20;97.40
40287;DHT22;25998;46.604;13.610;2024-02-04T18:04:45;8.20;97.10
40287;DHT22;25998;46.604;13.610;2024-02-04T18:07:57;8.10;97.40
40287;DHT22;25998;46.604;13.610;2024-02-04T18:11:18;8.00;97.50
40287;DHT22;25998;46.604;13.610;2024-02-04T18:14:29;7.90;97.80
40287;DHT22;25998;46.604;13.610;2024-02-04T18:17:40;7.80;97.50
40287;DHT22;25998;46.604;13.610;2024-02-04T18:20:52;7.80;97.60
40287;DHT22;25998;46.604;13.610;2024-02-04T18:24:04;7.70;97.70
40287;DHT22;25998;46.604;13.610;2024-02-04T18:27:16;7.60;98.00
40287;DHT22;25998;46.604;13.610;2024-02-04T18:30:27;7.70;97.90
40287;DHT22;25998;46.604;13.610;2024-02-04T18:33:38;7.50;97.90
40287;DHT22;25998;46.604;13.610;2024-02-04T18:36:49;7.40;98.10
40287;DHT22;25998;46.604;13.610;2024-02-04T18:40:00;7.30;98.60
40287;DHT22;25998;46.604;13.610;2024-02-04T18:43:10;7.20;98.60
40287;DHT22;25998;46.604;13.610;2024-02-04T18:46:21;7.20;98.50
40287;DHT22;25998;46.604;13.610;2024-02-04T18:49:32;7.20;98.40
40287;DHT22;25998;46.604;13.610;2024-02-04T18:52:44;7.30;98.50
40287;DHT22;25998;46.604;13.610;2024-02-04T18:55:55;7.30;98.30
40287;DHT22;25998;46.604;13.610;2024-02-04T18:59:07;7.40;98.40
40287;DHT22;25998;46.604;13.610;2024-02-04T19:02:17;7.50;97.90
40287;DHT22;25998;46.604;13.610;2024-02-04T19:05:28;7.60;97.80
40287;DHT22;25998;46.604;13.610;2024-02-04T19:08:42;7.50;98.10
40287;DHT22;25998;46.604;13.610;2024-02-04T19:11:53;7.40;98.10
40287;DHT22;25998;46.604;13.610;2024-02-04T19:15:05;7.30;98.50
40287;DHT22;25998;46.604;13.610;2024-02-04T19:18:16;7.20;98.30
40287;DHT22;25998;46.604;13.610;2024-02-04T19:21:27;7.20;98.20
40287;DHT22;25998;46.604;13.610;2024-02-04T19:24:38;7.20;97.90
40287;DHT22;25998;46.604;13.610;2024-02-04T19:27:52;7.20;98.20
40287;DHT22;25998;46.604;13.610;2024-02-04T19:31:03;7.40;98.30
40287;DHT22;25998;46.604;13.610;2024-02-04T19:34:14;7.40;97.80
40287;DHT22;25998;46.604;13.610;2024-02-04T19:37:25;7.20;98.10
40287;DHT22;25998;46.604;13.610;2024-02-04T19:40:36;7.10;98.40
40287;DHT22;25998;46.604;13.610;2024-02-04T19:43:48;7.20;98.40
40287;DHT22;25998;46.604;13.610;2024-02-04T19:46:59;7.20;98.00
40287;DHT22;25998;46.604;13.610;2024-02-04T19:50:10;7.20;97.90
40287;DHT22;25998;46.604;13.610;2024-02-04T19:53:21;7.10;98.40
40287;DHT22;25998;46.604;13.610;2024-02-04T19:56:32;7.20;98.50
40287;DHT22;25998;46.604;13.610;2024-02-04T19:59:45;7.10;98.50
40287;DHT22;25998;46.604;13.610;2024-02-04T20:02:56;7.10;98.10
40287;DHT22;25998;46.604;13.610;2024-02-04T20:06:08;6.90;98.40
40287;DHT22;25998;46.604;13.610;2024-02-04T20:09:19;6.70;98.90
40287;DHT22;25998;46.604;13.610;2024-02-04T20:12:29;6.60;98.90
40287;DHT22;25998;46.604;13.610;2024-02-04T20:15:40;6.60;99.00
40287;DHT22;25998;46.604;13.610;2024-02-04T20:18:52;6.60;99.10
40287;DHT22;25998;46.604;13.610;2024-02-04T20:22:05;6.60;99.30
40287;DHT22;25998;46.604;13.610;2024-02-04T20:25:19;6.70;98.90